sensor_id;sensor_type;location;lat;lon;timestamp;temperature;humidity
41985;DHT22;28319;48.116;10.818;2022-07-06T00:00:15;19.00;90.30
41985;DHT22;28319;48.116;10.818;2022-07-06T00:02:42;19.00;90.10
41985;DHT22;28319;48.116;10.818;2022-07-06T00:05:10;18.90;90.20
41985;DHT22;28319;48.116;10.818;2022-07-06T00:07:37;18.80;90.70
41985;DHT22;28319;48.116;10.818;2022-07-06T00:10:05;18.80;90.60
41985;DHT22;28319;48.116;10.818;2022-07-06T00:12:32;18.70;90.80
41985;DHT22;28319;48.116;10.818;2022-07-06T00:15:00;18.70;90.80
41985;DHT22;28319;48.116;10.818;2022-07-06T00:17:27;18.60;91.10
41985;DHT22;28319;48.116;10.818;2022-07-06T00:19:55;18.60;91.10
41985;DHT22;28319;48.116;10.818;2022-07-06T00:22:22;18.50;91.30
41985;DHT22;28319;48.116;10.818;2022-07-06T00:24:49;18.50;91.60
41985;DHT22;28319;48.116;10.818;2022-07-06T00:27:16;18.40;91.80
41985;DHT22;28319;48.116;10.818;2022-07-06T00:29:43;18.40;91.70
41985;DHT22;28319;48.116;10.818;2022-07-06T00:32:12;18.40;91.80
41985;DHT22;28319;48.116;10.818;2022-07-06T00:34:39;18.40;91.90
41985;DHT22;28319;48.116;10.818;2022-07-06T00:37:06;18.30;92.10
41985;DHT22;28319;48.116;10.818;2022-07-06T00:39:34;18.20;92.20
41985;DHT22;28319;48.116;10.818;2022-07-06T00:42:01;18.10;92.40
41985;DHT22;28319;48.116;10.818;2022-07-06T00:44:28;18.10;92.40
41985;DHT22;28319;48.116;10.818;2022-07-06T00:46:57;18.10;92.20
41985;DHT22;28319;48.116;10.818;2022-07-06T00:49:26;18.10;92.40
41985;DHT22;28319;48.116;10.818;2022-07-06T00:52:11;18.20;92.40
41985;DHT22;28319;48.116;10.818;2022-07-06T00:54:39;18.10;92.40
41985;DHT22;28319;48.116;10.818;2022-07-06T00:57:08;18.20;92.00
41985;DHT22;28319;48.116;10.818;2022-07-06T00:59:36;18.00;92.40
41985;DHT22;28319;48.116;10.818;2022-07-06T01:02:03;17.90;92.60
41985;DHT22;28319;48.116;10.818;2022-07-06T01:04:32;18.00;92.50
41985;DHT22;28319;48.116;10.818;2022-07-06T01:06:59;18.00;92.70
41985;DHT22;28319;48.116;10.818;2022-07-06T01:09:26;17.90;92.80
41985;DHT22;28319;48.116;10.818;2022-07-06T01:11:53;17.70;93.10
41985;DHT22;28319;48.116;10.818;2022-07-06T01:14:21;17.60;93.40
41985;DHT22;28319;48.116;10.818;2022-07-06T01:16:48;17.60;93.40
41985;DHT22;28319;48.116;10.818;2022-07-06T01:19:16;17.70;93.60
41985;DHT22;28319;48.116;10.818;2022-07-06T01:21:44;17.50;93.70
41985;DHT22;28319;48.116;10.818;2022-07-06T01:24:11;17.40;93.70
41985;DHT22;28319;48.116;10.818;2022-07-06T01:26:39;17.40;93.90
41985;DHT22;28319;48.116;10.818;2022-07-06T01:29:06;17.40;93.80
41985;DHT22;28319;48.116;10.818;2022-07-06T01:31:33;17.40;94.10
41985;DHT22;28319;48.116;10.818;2022-07-06T01:34:00;17.40;93.60
41985;DHT22;28319;48.116;10.818;2022-07-06T01:36:27;17.40;93.80
41985;DHT22;28319;48.116;10.818;2022-07-06T01:38:56;17.50;93.70
41985;DHT22;28319;48.116;10.818;2022-07-06T01:41:24;17.40;93.80
41985;DHT22;28319;48.116;10.818;2022-07-06T01:43:52;17.50;93.60
41985;DHT22;28319;48.116;10.818;2022-07-06T01:46:19;17.60;93.50
41985;DHT22;28319;48.116;10.818;2022-07-06T01:48:47;17.60;93.50
41985;DHT22;28319;48.116;10.818;2022-07-06T01:51:14;17.60;93.50
41985;DHT22;28319;48.116;10.818;2022-07-06T01:53:41;17.50;93.30
41985;DHT22;28319;48.116;10.818;2022-07-06T01:56:11;17.50;93.50
41985;DHT22;28319;48.116;10.818;2022-07-06T01:58:39;17.40;93.70
41985;DHT22;28319;48.116;10.818;2022-07-06T02:01:07;17.50;93.40
41985;DHT22;28319;48.116;10.818;2022-07-06T02:03:34;17.60;92.60
41985;DHT22;28319;48.116;10.818;2022-07-06T02:06:02;17.70;93.10
41985;DHT22;28319;48.116;10.818;2022-07-06T02:08:29;17.80;92.90
41985;DHT22;28319;48.116;10.818;2022-07-06T02:10:56;17.60;92.90
41985;DHT22;28319;48.116;10.818;2022-07-06T02:13:25;17.50;93.00
41985;DHT22;28319;48.116;10.818;2022-07-06T02:15:52;17.60;93.10
41985;DHT22;28319;48.116;10.818;2022-07-06T02:18:20;17.50;93.10
41985;DHT22;28319;48.116;10.818;2022-07-06T02:20:47;17.40;93.60
41985;DHT22;28319;48.116;10.818;2022-07-06T02:23:14;17.30;93.40
41985;DHT22;28319;48.116;10.818;2022-07-06T02:25:41;17.40;93.40
41985;DHT22;28319;48.116;10.818;2022-07-06T02:28:08;17.30;93.40
41985;DHT22;28319;48.116;10.818;2022-07-06T02:30:37;17.40;93.10
41985;DHT22;28319;48.116;10.818;2022-07-06T02:33:04;17.40;93.20
41985;DHT22;28319;48.116;10.818;2022-07-06T02:35:31;17.20;93.80
41985;DHT22;28319;48.116;10.818;2022-07-06T02:37:58;17.20;93.60
41985;DHT22;28319;48.116;10.818;2022-07-06T02:40:25;17.30;93.20
41985;DHT22;28319;48.116;10.818;2022-07-06T02:42:53;17.30;93.30
41985;DHT22;28319;48.116;10.818;2022-07-06T02:45:20;17.30;93.40
41985;DHT22;28319;48.116;10.818;2022-07-06T02:47:48;17.20;93.60
41985;DHT22;28319;48.116;10.818;2022-07-06T02:50:16;17.10;93.60
41985;DHT22;28319;48.116;10.818;2022-07-06T02:52:43;17.00;94.00
41985;DHT22;28319;48.116;10.818;2022-07-06T02:55:11;17.00;93.90
41985;DHT22;28319;48.116;10.818;2022-07-06T02:57:38;17.00;94.00
41985;DHT22;28319;48.116;10.818;2022-07-06T03:00:07;16.90;94.10
41985;DHT22;28319;48.116;10.818;2022-07-06T03:02:35;16.90;93.90
41985;DHT22;28319;48.116;10.818;2022-07-06T03:05:04;17.00;93.70
41985;DHT22;28319;48.116;10.818;2022-07-06T03:07:31;17.00;93.40
41985;DHT22;28319;48.116;10.818;2022-07-06T03:09:59;17.10;93.10
41985;DHT22;28319;48.116;10.818;2022-07-06T03:12:26;17.00;93.40
41985;DHT22;28319;48.116;10.818;2022-07-06T03:14:53;17.10;93.10
41985;DHT22;28319;48.116;10.818;2022-07-06T03:17:20;17.20;92.80
41985;DHT22;28319;48.116;10.818;2022-07-06T03:19:47;17.20;93.00
41985;DHT22;28319;48.116;10.818;2022-07-06T03:22:16;17.00;93.20
41985;DHT22;28319;48.116;10.818;2022-07-06T03:24:43;17.00;93.70
41985;DHT22;28319;48.116;10.818;2022-07-06T03:27:11;17.00;93.30
41985;DHT22;28319;48.116;10.818;2022-07-06T03:29:38;16.90;93.60
41985;DHT22;28319;48.116;10.818;2022-07-06T03:32:06;16.90;93.80
41985;DHT22;28319;48.116;10.818;2022-07-06T03:34:33;16.90;93.70
41985;DHT22;28319;48.116;10.818;2022-07-06T03:37:00;16.90;94.10
41985;DHT22;28319;48.116;10.818;2022-07-06T03:39:29;16.80;93.70
41985;DHT22;28319;48.116;10.818;2022-07-06T03:41:56;16.70;94.20
41985;DHT22;28319;48.116;10.818;2022-07-06T03:44:23;16.70;94.10
41985;DHT22;28319;48.116;10.818;2022-07-06T03:46:50;16.70;94.10
41985;DHT22;28319;48.116;10.818;2022-07-06T03:49:20;16.70;94.20
41985;DHT22;28319;48.116;10.818;2022-07-06T03:51:48;16.70;94.50
41985;DHT22;28319;48.116;10.818;2022-07-06T03:54:15;16.70;94.30
41985;DHT22;28319;48.116;10.818;2022-07-06T03:56:43;16.70;94.30
41985;DHT22;28319;48.116;10.818;2022-07-06T03:59:10;16.50;94.90
41985;DHT22;28319;48.116;10.818;2022-07-06T04:01:38;16.40;94.90
41985;DHT22;28319;48.116;10.818;2022-07-06T04:04:05;16.40;94.90
41985;DHT22;28319;48.116;10.818;2022-07-06T04:06:32;16.30;95.00
41985;DHT22;28319;48.116;10.818;2022-07-06T04:09:00;16.40;95.20
41985;DHT22;28319;48.116;10.818;2022-07-06T04:11:27;16.50;95.00
41985;DHT22;28319;48.116;10.818;2022-07-06T04:13:57;16.40;95.20
41985;DHT22;28319;48.116;10.818;2022-07-06T04:16:24;16.40;95.40
41985;DHT22;28319;48.116;10.818;2022-07-06T04:18:51;16.30;95.40
41985;DHT22;28319;48.116;10.818;2022-07-06T04:21:19;16.30;95.70
41985;DHT22;28319;48.116;10.818;2022-07-06T04:23:46;16.30;96.00
41985;DHT22;28319;48.116;10.818;2022-07-06T04:26:13;16.40;95.80
41985;DHT22;28319;48.116;10.818;2022-07-06T04:28:40;16.30;95.90
41985;DHT22;28319;48.116;10.818;2022-07-06T04:31:09;16.40;96.20
41985;DHT22;28319;48.116;10.818;2022-07-06T04:33:40;16.40;95.70
41985;DHT22;28319;48.116;10.818;2022-07-06T04:36:08;16.60;95.00
41985;DHT22;28319;48.116;10.818;2022-07-06T04:38:35;16.70;95.30
41985;DHT22;28319;48.116;10.818;2022-07-06T04:41:02;16.70;95.60
41985;DHT22;28319;48.116;10.818;2022-07-06T04:43:29;16.80;94.50
41985;DHT22;28319;48.116;10.818;2022-07-06T04:45:56;16.70;95.80
41985;DHT22;28319;48.116;10.818;2022-07-06T04:48:25;16.70;95.10
41985;DHT22;28319;48.116;10.818;2022-07-06T04:50:52;16.80;95.80
41985;DHT22;28319;48.116;10.818;2022-07-06T04:53:19;16.80;95.00
41985;DHT22;28319;48.116;10.818;2022-07-06T04:55:46;16.80;95.30
41985;DHT22;28319;48.116;10.818;2022-07-06T04:58:14;16.90;95.10
41985;DHT22;28319;48.116;10.818;2022-07-06T05:00:40;16.80;95.50
41985;DHT22;28319;48.116;10.818;2022-07-06T05:03:08;16.80;95.60
41985;DHT22;28319;48.116;10.818;2022-07-06T05:05:36;16.80;95.20
41985;DHT22;28319;48.116;10.818;2022-07-06T05:08:04;16.90;95.20
41985;DHT22;28319;48.116;10.818;2022-07-06T05:10:31;17.00;95.20
41985;DHT22;28319;48.116;10.818;2022-07-06T05:12:58;17.00;95.00
41985;DHT22;28319;48.116;10.818;2022-07-06T05:15:25;17.00;95.60
41985;DHT22;28319;48.116;10.818;2022-07-06T05:17:52;17.00;95.40
41985;DHT22;28319;48.116;10.818;2022-07-06T05:20:19;17.10;95.10
41985;DHT22;28319;48.116;10.818;2022-07-06T05:22:48;17.00;95.10
41985;DHT22;28319;48.116;10.818;2022-07-06T05:25:15;17.10;95.10
41985;DHT22;28319;48.116;10.818;2022-07-06T05:27:43;17.10;95.20
41985;DHT22;28319;48.116;10.818;2022-07-06T05:30:10;17.10;95.30
41985;DHT22;28319;48.116;10.818;2022-07-06T05:32:38;17.00;95.40
41985;DHT22;28319;48.116;10.818;2022-07-06T05:35:07;17.00;95.30
41985;DHT22;28319;48.116;10.818;2022-07-06T05:37:34;17.10;95.40
41985;DHT22;28319;48.116;10.818;2022-07-06T05:40:03;17.10;95.20
41985;DHT22;28319;48.116;10.818;2022-07-06T05:42:30;17.20;94.90
41985;DHT22;28319;48.116;10.818;2022-07-06T05:44:57;17.30;95.20
41985;DHT22;28319;48.116;10.818;2022-07-06T05:47:25;17.20;94.90
41985;DHT22;28319;48.116;10.818;2022-07-06T05:50:09;17.20;95.10
41985;DHT22;28319;48.116;10.818;2022-07-06T05:52:39;17.30;94.80
41985;DHT22;28319;48.116;10.818;2022-07-06T05:55:09;17.40;94.70
41985;DHT22;28319;48.116;10.818;2022-07-06T05:57:37;17.40;94.70
41985;DHT22;28319;48.116;10.818;2022-07-06T06:00:05;17.30;94.20
41985;DHT22;28319;48.116;10.818;2022-07-06T06:02:37;17.40;94.10
41985;DHT22;28319;48.116;10.818;2022-07-06T06:05:05;17.30;94.50
41985;DHT22;28319;48.116;10.818;2022-07-06T06:07:34;17.40;94.40
41985;DHT22;28319;48.116;10.818;2022-07-06T06:10:03;17.60;94.40
41985;DHT22;28319;48.116;10.818;2022-07-06T06:12:31;17.60;93.80
41985;DHT22;28319;48.116;10.818;2022-07-06T06:14:59;17.60;94.30
41985;DHT22;28319;48.116;10.818;2022-07-06T06:17:26;17.50;94.00
41985;DHT22;28319;48.116;10.818;2022-07-06T06:19:53;17.60;94.20
41985;DHT22;28319;48.116;10.818;2022-07-06T06:22:21;17.70;93.70
41985;DHT22;28319;48.116;10.818;2022-07-06T06:24:48;17.80;93.70
41985;DHT22;28319;48.116;10.818;2022-07-06T06:27:15;17.80;93.20
41985;DHT22;28319;48.116;10.818;2022-07-06T06:29:44;17.80;93.20
41985;DHT22;28319;48.116;10.818;2022-07-06T06:32:12;17.80;93.20
41985;DHT22;28319;48.116;10.818;2022-07-06T06:34:40;18.00;92.80
41985;DHT22;28319;48.116;10.818;2022-07-06T06:37:07;18.00;92.10
41985;DHT22;28319;48.116;10.818;2022-07-06T06:39:34;18.10;92.00
41985;DHT22;28319;48.116;10.818;2022-07-06T06:42:01;18.10;91.50
41985;DHT22;28319;48.116;10.818;2022-07-06T06:44:28;18.10;91.30
41985;DHT22;28319;48.116;10.818;2022-07-06T06:46:57;18.20;91.50
41985;DHT22;28319;48.116;10.818;2022-07-06T06:49:24;18.20;91.40
41985;DHT22;28319;48.116;10.818;2022-07-06T06:51:51;18.30;91.40
41985;DHT22;28319;48.116;10.818;2022-07-06T06:54:18;18.40;91.20
41985;DHT22;28319;48.116;10.818;2022-07-06T06:56:45;18.40;91.50
41985;DHT22;28319;48.116;10.818;2022-07-06T06:59:12;18.30;91.00
41985;DHT22;28319;48.116;10.818;2022-07-06T07:01:40;18.30;91.40
41985;DHT22;28319;48.116;10.818;2022-07-06T07:04:09;18.40;91.30
41985;DHT22;28319;48.116;10.818;2022-07-06T07:06:37;18.40;91.00
41985;DHT22;28319;48.116;10.818;2022-07-06T07:09:04;18.50;90.90
41985;DHT22;28319;48.116;10.818;2022-07-06T07:11:31;18.60;90.80
41985;DHT22;28319;48.116;10.818;2022-07-06T07:13:58;18.60;90.70
41985;DHT22;28319;48.116;10.818;2022-07-06T07:16:27;18.60;90.40
41985;DHT22;28319;48.116;10.818;2022-07-06T07:18:54;18.70;90.70
41985;DHT22;28319;48.116;10.818;2022-07-06T07:21:22;18.70;90.50
41985;DHT22;28319;48.116;10.818;2022-07-06T07:23:50;18.90;90.50
41985;DHT22;28319;48.116;10.818;2022-07-06T07:26:17;18.90;90.30
41985;DHT22;28319;48.116;10.818;2022-07-06T07:28:44;19.00;90.60
41985;DHT22;28319;48.116;10.818;2022-07-06T07:31:12;19.00;89.70
41985;DHT22;28319;48.116;10.818;2022-07-06T07:33:39;19.00;90.00
41985;DHT22;28319;48.116;10.818;2022-07-06T07:36:07;19.00;90.10
41985;DHT22;28319;48.116;10.818;2022-07-06T07:38:36;19.10;90.10
41985;DHT22;28319;48.116;10.818;2022-07-06T07:41:03;19.20;89.20
41985;DHT22;28319;48.116;10.818;2022-07-06T07:43:31;19.20;89.30
41985;DHT22;28319;48.116;10.818;2022-07-06T07:45:58;19.30;89.80
41985;DHT22;28319;48.116;10.818;2022-07-06T07:48:26;19.40;89.70
41985;DHT22;28319;48.116;10.818;2022-07-06T07:50:53;19.50;90.30
41985;DHT22;28319;48.116;10.818;2022-07-06T07:53:20;19.50;88.80
41985;DHT22;28319;48.116;10.818;2022-07-06T07:55:49;19.50;88.10
41985;DHT22;28319;48.116;10.818;2022-07-06T07:58:16;19.50;89.60
41985;DHT22;28319;48.116;10.818;2022-07-06T08:00:43;19.60;90.10
41985;DHT22;28319;48.116;10.818;2022-07-06T08:03:11;19.70;87.90
41985;DHT22;28319;48.116;10.818;2022-07-06T08:05:40;19.70;89.60
41985;DHT22;28319;48.116;10.818;2022-07-06T08:08:07;19.80;87.60
41985;DHT22;28319;48.116;10.818;2022-07-06T08:10:34;19.80;86.40
41985;DHT22;28319;48.116;10.818;2022-07-06T08:13:02;19.80;86.90
41985;DHT22;28319;48.116;10.818;2022-07-06T08:15:29;19.80;86.60
41985;DHT22;28319;48.116;10.818;2022-07-06T08:17:57;20.00;86.50
41985;DHT22;28319;48.116;10.818;2022-07-06T08:20:24;19.90;86.40
41985;DHT22;28319;48.116;10.818;2022-07-06T08:22:51;20.00;86.30
41985;DHT22;28319;48.116;10.818;2022-07-06T08:25:19;19.90;85.50
41985;DHT22;28319;48.116;10.818;2022-07-06T08:27:46;20.10;87.20
41985;DHT22;28319;48.116;10.818;2022-07-06T08:30:15;20.10;86.40
41985;DHT22;28319;48.116;10.818;2022-07-06T08:32:43;20.20;85.70
41985;DHT22;28319;48.116;10.818;2022-07-06T08:35:11;20.30;86.20
41985;DHT22;28319;48.116;10.818;2022-07-06T08:37:38;20.40;85.30
41985;DHT22;28319;48.116;10.818;2022-07-06T08:40:06;20.50;85.90
41985;DHT22;28319;48.116;10.818;2022-07-06T08:42:35;20.60;85.50
41985;DHT22;28319;48.116;10.818;2022-07-06T08:45:05;20.70;84.20
41985;DHT22;28319;48.116;10.818;2022-07-06T08:47:36;20.80;85.30
41985;DHT22;28319;48.116;10.818;2022-07-06T08:50:04;20.90;84.50
41985;DHT22;28319;48.116;10.818;2022-07-06T08:52:32;21.00;85.10
41985;DHT22;28319;48.116;10.818;2022-07-06T08:54:59;21.00;82.20
41985;DHT22;28319;48.116;10.818;2022-07-06T08:57:28;21.10;82.90
41985;DHT22;28319;48.116;10.818;2022-07-06T08:59:56;21.20;83.30
41985;DHT22;28319;48.116;10.818;2022-07-06T09:02:24;21.20;83.90
41985;DHT22;28319;48.116;10.818;2022-07-06T09:04:55;21.30;83.50
41985;DHT22;28319;48.116;10.818;2022-07-06T09:07:25;21.40;82.10
41985;DHT22;28319;48.116;10.818;2022-07-06T09:09:54;21.40;84.30
41985;DHT22;28319;48.116;10.818;2022-07-06T09:12:22;21.60;82.80
41985;DHT22;28319;48.116;10.818;2022-07-06T09:14:49;21.60;81.70
41985;DHT22;28319;48.116;10.818;2022-07-06T09:17:16;21.80;82.00
41985;DHT22;28319;48.116;10.818;2022-07-06T09:19:45;21.60;80.30
41985;DHT22;28319;48.116;10.818;2022-07-06T09:22:26;21.70;81.70
41985;DHT22;28319;48.116;10.818;2022-07-06T09:25:02;21.80;80.70
41985;DHT22;28319;48.116;10.818;2022-07-06T09:27:29;21.90;81.00
41985;DHT22;28319;48.116;10.818;2022-07-06T09:29:59;21.90;80.80
41985;DHT22;28319;48.116;10.818;2022-07-06T09:32:28;21.90;79.00
41985;DHT22;28319;48.116;10.818;2022-07-06T09:34:55;22.00;77.20
41985;DHT22;28319;48.116;10.818;2022-07-06T09:37:22;22.00;78.50
41985;DHT22;28319;48.116;10.818;2022-07-06T09:39:51;22.30;80.00
41985;DHT22;28319;48.116;10.818;2022-07-06T09:42:24;22.40;78.80
41985;DHT22;28319;48.116;10.818;2022-07-06T09:44:52;22.40;76.50
41985;DHT22;28319;48.116;10.818;2022-07-06T09:47:20;22.70;76.20
41985;DHT22;28319;48.116;10.818;2022-07-06T09:49:47;22.70;73.70
41985;DHT22;28319;48.116;10.818;2022-07-06T09:52:14;22.60;75.70
41985;DHT22;28319;48.116;10.818;2022-07-06T09:54:42;22.50;74.90
41985;DHT22;28319;48.116;10.818;2022-07-06T09:57:11;22.50;74.70
41985;DHT22;28319;48.116;10.818;2022-07-06T09:59:38;22.70;75.30
41985;DHT22;28319;48.116;10.818;2022-07-06T10:02:07;22.70;74.50
41985;DHT22;28319;48.116;10.818;2022-07-06T10:04:35;22.90;73.80
41985;DHT22;28319;48.116;10.818;2022-07-06T10:07:04;22.90;74.40
41985;DHT22;28319;48.116;10.818;2022-07-06T10:09:37;23.00;74.30
41985;DHT22;28319;48.116;10.818;2022-07-06T10:12:05;23.30;73.10
41985;DHT22;28319;48.116;10.818;2022-07-06T10:14:37;23.40;75.20
41985;DHT22;28319;48.116;10.818;2022-07-06T10:17:07;23.40;73.90
41985;DHT22;28319;48.116;10.818;2022-07-06T10:19:34;23.60;72.80
41985;DHT22;28319;48.116;10.818;2022-07-06T10:22:03;23.90;74.50
41985;DHT22;28319;48.116;10.818;2022-07-06T10:24:31;23.90;70.80
41985;DHT22;28319;48.116;10.818;2022-07-06T10:26:59;23.80;72.20
41985;DHT22;28319;48.116;10.818;2022-07-06T10:29:27;23.70;73.30
41985;DHT22;28319;48.116;10.818;2022-07-06T10:31:57;23.50;72.50
41985;DHT22;28319;48.116;10.818;2022-07-06T10:34:24;23.70;73.20
41985;DHT22;28319;48.116;10.818;2022-07-06T10:36:52;23.90;75.20
41985;DHT22;28319;48.116;10.818;2022-07-06T10:39:32;23.90;72.60
41985;DHT22;28319;48.116;10.818;2022-07-06T10:42:44;24.00;74.80
41985;DHT22;28319;48.116;10.818;2022-07-06T10:45:19;24.20;73.40
41985;DHT22;28319;48.116;10.818;2022-07-06T10:48:16;24.20;70.30
41985;DHT22;28319;48.116;10.818;2022-07-06T10:50:47;24.00;71.70
41985;DHT22;28319;48.116;10.818;2022-07-06T10:53:16;24.20;71.80
41985;DHT22;28319;48.116;10.818;2022-07-06T10:55:44;24.60;71.20
41985;DHT22;28319;48.116;10.818;2022-07-06T10:58:13;24.80;71.00
41985;DHT22;28319;48.116;10.818;2022-07-06T11:00:51;24.80;69.10
41985;DHT22;28319;48.116;10.818;2022-07-06T11:03:33;25.00;69.20
41985;DHT22;28319;48.116;10.818;2022-07-06T11:06:02;24.70;68.60
41985;DHT22;28319;48.116;10.818;2022-07-06T11:08:51;25.00;70.90
41985;DHT22;28319;48.116;10.818;2022-07-06T11:11:21;25.50;69.60
41985;DHT22;28319;48.116;10.818;2022-07-06T11:13:54;25.70;68.80
41985;DHT22;28319;48.116;10.818;2022-07-06T11:16:22;26.00;68.20
41985;DHT22;28319;48.116;10.818;2022-07-06T11:19:05;26.10;67.40
41985;DHT22;28319;48.116;10.818;2022-07-06T11:21:45;26.30;69.10
41985;DHT22;28319;48.116;10.818;2022-07-06T11:24:14;26.10;67.00
41985;DHT22;28319;48.116;10.818;2022-07-06T11:26:43;26.00;66.00
41985;DHT22;28319;48.116;10.818;2022-07-06T11:29:12;26.10;66.90
41985;DHT22;28319;48.116;10.818;2022-07-06T11:31:40;26.30;65.60
41985;DHT22;28319;48.116;10.818;2022-07-06T11:34:10;26.20;63.40
41985;DHT22;28319;48.116;10.818;2022-07-06T11:36:38;26.20;63.70
41985;DHT22;28319;48.116;10.818;2022-07-06T11:39:07;26.40;63.60
41985;DHT22;28319;48.116;10.818;2022-07-06T11:41:34;26.30;63.70
41985;DHT22;28319;48.116;10.818;2022-07-06T11:44:03;26.60;63.60
41985;DHT22;28319;48.116;10.818;2022-07-06T11:46:31;26.80;65.90
41985;DHT22;28319;48.116;10.818;2022-07-06T11:49:00;27.00;64.30
41985;DHT22;28319;48.116;10.818;2022-07-06T11:51:31;26.80;59.80
41985;DHT22;28319;48.116;10.818;2022-07-06T11:54:00;26.70;60.90
41985;DHT22;28319;48.116;10.818;2022-07-06T11:56:28;26.60;62.70
41985;DHT22;28319;48.116;10.818;2022-07-06T11:58:58;26.90;62.70
41985;DHT22;28319;48.116;10.818;2022-07-06T12:01:27;27.20;61.50
41985;DHT22;28319;48.116;10.818;2022-07-06T12:03:58;26.70;59.90
41985;DHT22;28319;48.116;10.818;2022-07-06T12:06:26;26.40;64.10
41985;DHT22;28319;48.116;10.818;2022-07-06T12:08:57;26.10;62.60
41985;DHT22;28319;48.116;10.818;2022-07-06T12:11:26;26.40;64.60
41985;DHT22;28319;48.116;10.818;2022-07-06T12:13:55;26.90;61.90
41985;DHT22;28319;48.116;10.818;2022-07-06T12:16:29;27.20;62.50
41985;DHT22;28319;48.116;10.818;2022-07-06T12:18:56;27.10;61.00
41985;DHT22;28319;48.116;10.818;2022-07-06T12:21:23;27.10;61.50
41985;DHT22;28319;48.116;10.818;2022-07-06T12:23:52;26.60;61.60
41985;DHT22;28319;48.116;10.818;2022-07-06T12:26:23;26.20;62.40
41985;DHT22;28319;48.116;10.818;2022-07-06T12:29:01;25.70;62.80
41985;DHT22;28319;48.116;10.818;2022-07-06T12:31:34;25.90;67.20
41985;DHT22;28319;48.116;10.818;2022-07-06T12:34:03;26.40;61.40
41985;DHT22;28319;48.116;10.818;2022-07-06T12:36:30;26.50;64.50
41985;DHT22;28319;48.116;10.818;2022-07-06T12:38:57;26.20;63.00
41985;DHT22;28319;48.116;10.818;2022-07-06T12:41:42;26.00;62.10
41985;DHT22;28319;48.116;10.818;2022-07-06T12:44:10;26.50;62.60
41985;DHT22;28319;48.116;10.818;2022-07-06T12:46:39;26.80;62.50
41985;DHT22;28319;48.116;10.818;2022-07-06T12:49:18;27.20;63.60
41985;DHT22;28319;48.116;10.818;2022-07-06T12:51:53;27.40;62.20
41985;DHT22;28319;48.116;10.818;2022-07-06T12:54:20;27.50;61.60
41985;DHT22;28319;48.116;10.818;2022-07-06T12:57:10;27.50;60.20
41985;DHT22;28319;48.116;10.818;2022-07-06T12:59:41;27.50;60.70
41985;DHT22;28319;48.116;10.818;2022-07-06T13:02:10;27.70;58.70
41985;DHT22;28319;48.116;10.818;2022-07-06T13:04:43;27.10;60.30
41985;DHT22;28319;48.116;10.818;2022-07-06T13:07:18;27.10;61.00
41985;DHT22;28319;48.116;10.818;2022-07-06T13:09:45;27.30;59.50
41985;DHT22;28319;48.116;10.818;2022-07-06T13:12:14;27.20;59.00
41985;DHT22;28319;48.116;10.818;2022-07-06T13:14:41;27.10;60.00
41985;DHT22;28319;48.116;10.818;2022-07-06T13:17:08;27.10;58.10
41985;DHT22;28319;48.116;10.818;2022-07-06T13:19:35;27.40;62.10
41985;DHT22;28319;48.116;10.818;2022-07-06T13:22:03;27.50;59.60
41985;DHT22;28319;48.116;10.818;2022-07-06T13:24:31;27.50;60.20
41985;DHT22;28319;48.116;10.818;2022-07-06T13:26:58;27.30;57.40
41985;DHT22;28319;48.116;10.818;2022-07-06T13:29:26;27.30;58.20
41985;DHT22;28319;48.116;10.818;2022-07-06T13:31:54;27.40;58.90
41985;DHT22;28319;48.116;10.818;2022-07-06T13:34:22;27.70;58.60
41985;DHT22;28319;48.116;10.818;2022-07-06T13:36:49;27.00;57.60
41985;DHT22;28319;48.116;10.818;2022-07-06T13:39:16;27.00;60.00
41985;DHT22;28319;48.116;10.818;2022-07-06T13:41:44;27.30;59.60
41985;DHT22;28319;48.116;10.818;2022-07-06T13:44:12;27.30;59.40
41985;DHT22;28319;48.116;10.818;2022-07-06T13:46:40;27.20;58.10
41985;DHT22;28319;48.116;10.818;2022-07-06T13:49:08;27.30;58.50
41985;DHT22;28319;48.116;10.818;2022-07-06T13:51:35;27.20;59.00
41985;DHT22;28319;48.116;10.818;2022-07-06T13:54:03;27.20;57.80
41985;DHT22;28319;48.116;10.818;2022-07-06T13:56:30;27.20;57.10
41985;DHT22;28319;48.116;10.818;2022-07-06T13:58:58;27.40;58.80
41985;DHT22;28319;48.116;10.818;2022-07-06T14:01:25;27.30;58.00
41985;DHT22;28319;48.116;10.818;2022-07-06T14:03:54;27.60;56.20
41985;DHT22;28319;48.116;10.818;2022-07-06T14:06:21;27.50;57.30
41985;DHT22;28319;48.116;10.818;2022-07-06T14:08:48;27.60;57.30
41985;DHT22;28319;48.116;10.818;2022-07-06T14:11:17;27.30;56.70
41985;DHT22;28319;48.116;10.818;2022-07-06T14:13:44;27.30;58.10
41985;DHT22;28319;48.116;10.818;2022-07-06T14:16:11;27.30;57.60
41985;DHT22;28319;48.116;10.818;2022-07-06T14:18:39;27.30;58.00
41985;DHT22;28319;48.116;10.818;2022-07-06T14:21:07;27.40;56.20
41985;DHT22;28319;48.116;10.818;2022-07-06T14:23:35;27.40;56.30
41985;DHT22;28319;48.116;10.818;2022-07-06T14:26:02;27.30;56.70
41985;DHT22;28319;48.116;10.818;2022-07-06T14:28:29;27.30;57.00
41985;DHT22;28319;48.116;10.818;2022-07-06T14:30:56;27.30;56.10
41985;DHT22;28319;48.116;10.818;2022-07-06T14:33:27;27.30;57.60
41985;DHT22;28319;48.116;10.818;2022-07-06T14:35:54;27.20;54.70
41985;DHT22;28319;48.116;10.818;2022-07-06T14:38:23;27.00;55.90
41985;DHT22;28319;48.116;10.818;2022-07-06T14:40:50;27.20;58.00
41985;DHT22;28319;48.116;10.818;2022-07-06T14:43:18;27.30;57.40
41985;DHT22;28319;48.116;10.818;2022-07-06T14:45:46;27.40;56.00
41985;DHT22;28319;48.116;10.818;2022-07-06T14:48:13;27.30;58.00
41985;DHT22;28319;48.116;10.818;2022-07-06T14:50:41;27.30;56.40
41985;DHT22;28319;48.116;10.818;2022-07-06T14:53:08;27.20;55.70
41985;DHT22;28319;48.116;10.818;2022-07-06T14:55:37;27.10;56.80
41985;DHT22;28319;48.116;10.818;2022-07-06T14:58:04;27.30;57.30
41985;DHT22;28319;48.116;10.818;2022-07-06T15:00:32;27.30;57.20
41985;DHT22;28319;48.116;10.818;2022-07-06T15:02:59;27.40;57.10
41985;DHT22;28319;48.116;10.818;2022-07-06T15:05:26;26.70;56.10
41985;DHT22;28319;48.116;10.818;2022-07-06T15:07:53;26.60;56.20
41985;DHT22;28319;48.116;10.818;2022-07-06T15:10:20;26.60;57.00
41985;DHT22;28319;48.116;10.818;2022-07-06T15:12:50;26.80;57.40
41985;DHT22;28319;48.116;10.818;2022-07-06T15:15:18;26.90;58.40
41985;DHT22;28319;48.116;10.818;2022-07-06T15:17:45;26.90;56.40
41985;DHT22;28319;48.116;10.818;2022-07-06T15:20:12;26.80;56.30
41985;DHT22;28319;48.116;10.818;2022-07-06T15:22:39;26.80;56.10